東京国際空港の過去48時間の天気

東京国際空港 (Tokyo/Intl)

現在時刻: 2/23 21:45 JST (2/23 12:45 UTC) 以下の時間は現地時間です。

過去48時間のMETAR気象情報
時間 風向 風速(m/s) 視程 気温(℃) 湿度(%) 気圧(hPa) 天気現象
23 21:30 北東 1 10km以上 6 81 1021
23 21:00 北東 1 10km以上 6 81 1021
23 20:30 北東 1 10km以上 7 76 1021
23 20:00 北東 2 10km以上 7 76 1021
23 19:30 北東 1 10km以上 7 70 1020
23 19:00 北東 1 10km以上 7 70 1020
23 18:30 東北東 2 10km以上 7 76 1020
23 18:00 東北東 2 10km以上 7 70 1020
23 17:30 2 10km以上 7 70 1019
23 17:00 不定 1 10km以上 7 70 1019
23 16:30 2 10km以上 7 70 1018
23 16:00 2 10km以上 7 70 1018
23 15:30 東北東 2 10km以上 7 76 1018
23 15:00 北北東 3 10km以上 7 70 1018
23 14:30 北北東 5 10km以上 7 70 1017
23 14:00 北北東 5 10km以上 7 76 1017
23 13:30 北北東 4 10km以上 6 81 1017
23 13:00 北北東 4 10km以上 6 76 1018
23 12:30 北東 4 10km以上 6 76 1018
23 12:00 北北東 4 10km以上 5 81 1018
23 11:49 北北東 4 10km以上 5 81 1018
23 11:30 4 10km以上 5 81 1019
23 11:00 5 10km以上 4 87 1019
23 10:30 5 10km以上 4 87 1019
23 10:00 5 10km以上 4 87 1020
23 09:30 5 10km以上 4 87 1020
23 09:00 5 10km以上 4 87 1020 弱い雨
23 08:30 4 10km以上 4 87 1020 弱い雨
23 08:00 4 10km以上 3 93 1020 弱い雨
23 07:30 5 10km以上 4 87 1020
23 07:00 5 10km以上 3 93 1019
23 06:30 6 10km以上 3 93 1019
23 06:00 6 10km以上 3 93 1019
23 05:30 5 10km以上 3 93 1019
23 05:00 6 10km以上 3 93 1019
23 04:30 6 9,000m 3 93 1019
23 04:00 5 10km以上 3 93 1019
23 03:30 5 9,000m 3 93 1019
23 03:00 北北西 4 10km以上 3 93 1019
23 02:41 4 10km以上 3 93 1019
23 02:30 北北西 4 10km以上 3 93 1019
23 02:00 北北西 5 10km以上 3 93 1019
23 01:30 北北西 5 9,000m 3 93 1020 弱い雨
23 01:18 6 8,000m 3 93 1020 弱い雨
23 01:00 北北西 6 8,000m 3 93 1020 弱い雨
23 00:30 北北西 4 8,000m 4 87 1020 弱い雨
23 00:00 北西 4 9,000m 4 87 1020 弱い雨
22 23:30 5 9,000m 4 93 1020
22 23:00 4 10km以上 4 93 1020 弱い雨
22 22:30 4 10km以上 4 93 1020 弱い雨
22 22:00 4 10km以上 4 93 1020
22 21:30 4 10km以上 4 87 1021
22 21:00 北北東 4 10km以上 4 87 1021
22 20:30 北北東 4 10km以上 4 87 1020
22 20:00 北北東 4 10km以上 4 87 1021
22 19:30 北北東 5 10km以上 4 87 1021
22 19:00 北北東 5 10km以上 3 93 1021
22 18:30 北北東 5 10km以上 3 93 1021
22 18:00 北東 6 10km以上 4 87 1020
22 17:30 北東 6 10km以上 3 93 1020
22 17:00 北東 6 10km以上 3 93 1020
22 16:30 北東 6 10km以上 3 93 1020
22 16:07 北北東 6 10km以上 3 93 1020 弱いしゅう雨 弱いしゅう雪
22 16:00 北東 6 10km以上 3 93 1020 弱いしゅう雨 弱いしゅう雪
22 15:30 北東 6 10km以上 3 87 1020 弱いしゅう雨 弱いしゅう雪
22 15:00 北東 6 10km以上 3 87 1020 弱いしゅう雨 弱いしゅう雪
22 14:30 北北東 7 10km以上 3 87 1020 弱いしゅう雨 弱いしゅう雪
22 09:34 北北東 6 5,000m 2 100 1022 弱いしゅうあられ 弱いしゅう雪
22 09:30 北北東 6 5,000m 2 93 1022 弱いしゅう雪 弱いしゅう雨
22 09:16 北北東 7 4,500m 2 93 1022 弱いしゅうあられ 弱いしゅう雪
22 09:00 北北東 7 10km以上 2 100 1022 弱い雪 弱い雨
22 08:45 北北東 7 7,000m 2 100 1022 弱い雪
22 08:30 北北東 7 5,000m 2 100 1021 弱い雪 もや
22 08:16 北北東 6 4,500m 2 100 1022 弱い雪 もや
22 08:00 北北東 6 5,000m 2 100 1022 弱い雨 弱い雪 もや
22 07:30 北北東 7 3,500m 2 100 1021 弱い雪 もや
22 07:00 北北東 7 7,000m 2 100 1021 弱い雨
22 06:30 7 7,000m 2 93 1020 弱い雨
22 06:00 北北東 6 7,000m 2 93 1020 弱い雨
22 05:30 北北東 4 7,000m 3 87 1020 弱い雨
22 05:00 北北東 5 8,000m 3 87 1019 弱い雨
22 04:30 北北東 6 10km以上 3 87 1019 弱い雨 弱い雪
22 04:00 北東 7 10km以上 4 87 1018 弱い雨
22 03:30 北東 6 10km以上 4 87 1018 弱い雨
22 03:00 北東 5 10km以上 4 81 1018 弱い雨
22 02:30 北東 6 10km以上 4 81 1018 弱い雨
22 02:00 北東 7 10km以上 5 75 1018 弱い雨
22 01:30 東北東 7 10km以上 5 70 1017 弱い雨
22 01:00 東北東 8 10km以上 6 61 1017 弱い雨
21 23:30 東北東 7 10km以上 6 65 1016
21 22:30 東北東 7 10km以上 6 65 1016
21 22:00 7 10km以上 7 66 1016
RJTT 231230Z 04001KT 9999 FEW020 06/03 Q1021 NOSIG RMK 1CU020 A3018
RJTT 231200Z 04002KT 9999 FEW020 06/03 Q1021 NOSIG RMK 1CU020 A3017
RJTT 231130Z 05002KT 9999 FEW020 07/03 Q1021 NOSIG RMK 1CU020 A3016
RJTT 231100Z 04003KT 9999 FEW020 07/03 Q1021 NOSIG RMK 1CU020 A3015
RJTT 231030Z 04002KT 9999 FEW015 07/02 Q1020 NOSIG RMK 1CU015 A3015
RJTT 231000Z 04002KT 9999 FEW015 07/02 Q1020 NOSIG RMK 1CU015 A3015
RJTT 230930Z 07003KT 9999 FEW015 07/03 Q1020 BECMG 04006KT
RJTT 230900Z 06003KT 9999 FEW015 07/02 Q1020 BECMG 04006KT RMK 1CU015 A3012
RJTT 230830Z 10003KT 9999 FEW015 07/02 Q1019 BECMG 04006KT
RJTT 230800Z VRB02KT 9999 FEW015 07/02 Q1019 BECMG 04006KT
RJTT 230730Z 08003KT 030V130 9999 FEW015 07/02 Q1018 BECMG 04008KT RMK 1CU015 A3009
RJTT 230700Z 08003KT 050V120 9999 FEW015 07/02 Q1018 BECMG 04008KT RMK 1CU015 A3008
RJTT 230630Z 06004KT 9999 FEW015 07/03 Q1018 BECMG 04008KT
RJTT 230600Z 03006KT 360V060 9999 FEW015 07/02 Q1018 NOSIG RMK 1CU015 A3007
RJTT 230530Z 03009KT 9999 FEW015 07/02 Q1017 NOSIG RMK 1CU015 A3006
RJTT 230500Z 03009KT 9999 FEW015 SCT020 07/03 Q1017 NOSIG RMK 1CU015 4SC020 A3005
RJTT 230430Z 03008KT 9999 FEW012 SCT015 BKN020 06/03 Q1017 NOSIG RMK 1CU012 4SC015 5SC020 A3005
RJTT 230400Z 03007KT 9999 FEW012 BKN015 06/02 Q1018 NOSIG RMK 1CU012 5SC015 A3007
RJTT 230330Z 04008KT 9999 FEW012 SCT015 06/02 Q1018 NOSIG RMK 1CU012 4SC015 A3007
RJTT 230300Z 03007KT 9999 FEW012 SCT015 BKN025 05/02 Q1018 NOSIG RMK 1CU012 3SC015 6SC025 A3008
RJTT 230249Z 02007KT 350V050 9999 FEW010 BKN015 BKN025 05/02 Q1018 RMK 1CU010 5SC015 6SC025 A3008
RJTT 230230Z 36008KT 9999 FEW008 BKN014 BKN040 05/02 Q1019 BECMG FEW010 BKN016
RJTT 230200Z 35009KT 9999 FEW008 SCT012 BKN014 04/02 Q1019 BECMG FEW010 BKN016 RMK 1ST008 3SC012 6SC014 A3010
RJTT 230130Z 35009KT 310V020 9999 FEW008 SCT011 BKN013 04/02 Q1019 BECMG FEW010 BKN016
RJTT 230100Z 36010KT 9999 FEW008 BKN012 04/02 Q1020 BECMG FEW010 BKN016 RMK 1ST008 7SC012 A3012
RJTT 230030Z 36010KT 310V020 9999 FEW008 BKN011 04/02 Q1020 BECMG FEW010 BKN016
RJTT 230000Z 36010KT 9999 -RA FEW008 BKN011 04/02 Q1020 NOSIG RMK 1ST008 7SC011 A3013
RJTT 222330Z 35008KT 310V020 9999 -RA FEW007 BKN010 04/02 Q1020 NOSIG RMK 1ST007 7ST010 A3013
RJTT 222300Z 36008KT 9999 -RA FEW007 BKN010 03/02 Q1020 NOSIG RMK 1ST007 7ST010 A3013
RJTT 222230Z 35009KT 9999 FEW007 BKN010 04/02 Q1020 NOSIG RMK 1ST007 7ST010 A3013
RJTT 222200Z 35009KT 9999 FEW007 BKN010 03/02 Q1019 NOSIG RMK 1ST007 7ST010 A3012
RJTT 222130Z 36011KT 9999 FEW007 BKN010 03/02 Q1019 TEMPO FEW005 BKN008
RJTT 222100Z 36011KT 9999 FEW007 BKN010 03/02 Q1019 TEMPO FEW005 BKN008 RMK 1ST007 7ST010 A3011
RJTT 222030Z 36010KT 9999 FEW007 BKN010 03/02 Q1019 TEMPO FEW005 BKN008
RJTT 222000Z 36011KT 9999 FEW007 BKN009 BKN011 03/02 Q1019 NOSIG RMK 1ST007 6ST009 7SC011 A3012
RJTT 221930Z 36011KT 9000 FEW007 BKN009 03/02 Q1019 NOSIG RMK 1ST007 7ST009 A3011
RJTT 221900Z 36010KT 9999 FEW007 BKN009 03/02 Q1019 NOSIG RMK 1ST007 7ST009 A3011
RJTT 221830Z 35009KT 9000 FEW007 BKN009 03/02 Q1019 NOSIG RMK 1ST007 7ST009 A3011
RJTT 221800Z 34008KT 9999 FEW007 BKN009 03/02 Q1019 NOSIG RMK 1ST007 7ST009 A3011
RJTT 221741Z 35008KT 9999 FEW007 BKN009 03/02 Q1019 RMK 1ST007 7ST009 A3011
RJTT 221730Z 34008KT 9999 FEW008 BKN010 BKN015 03/02 Q1019 TEMPO FEW005 BKN008
RJTT 221700Z 34010KT 9999 FEW007 BKN010 BKN015 03/02 Q1019 TEMPO FEW005 BKN008 RMK 1ST007 6ST010 7SC015 A3012
RJTT 221630Z 34010KT 9000 -RA FEW006 BKN009 BKN015 03/02 Q1020 NOSIG RMK 1ST006 5ST009 7SC015 A3013
RJTT 221618Z 35011KT 8000 -RA FEW006 BKN009 BKN015 03/02 Q1020 RMK 1ST006 5ST009 7SC015 A3013
RJTT 221600Z 34012KT 8000 -RA FEW007 BKN010 BKN015 03/02 Q1020 TEMPO FEW005 BKN008 RMK 1ST007 6ST010 7SC015 A3013
RJTT 221530Z 34008KT 8000 -RA FEW007 BKN010 BKN015 04/02 Q1020 NOSIG RMK 1ST007 6ST010 7SC015 A3014
RJTT 221500Z 32008KT 9000 -RA FEW007 BKN010 BKN015 04/02 Q1020 NOSIG RMK 1ST007 5ST010 6SC015 A3014
RJTT 221430Z 35009KT 9000 FEW007 BKN010 BKN015 04/03 Q1020 TEMPO FEW005 BKN008
RJTT 221400Z 36008KT 9999 -RA FEW007 BKN010 BKN015 04/03 Q1020 TEMPO FEW005 BKN008 RMK 1ST007 5ST010 6SC015 A3013
RJTT 221330Z 01008KT 9999 -RA FEW007 BKN010 BKN015 04/03 Q1020 TEMPO FEW005 BKN008
RJTT 221300Z 01008KT 9999 FEW007 BKN012 BKN020 04/03 Q1020 TEMPO FEW005 BKN008 RMK 1ST007 6SC012 7SC020 A3015
RJTT 221230Z 01008KT 9999 FEW007 BKN012 BKN020 04/02 Q1021 TEMPO FEW005 BKN008
RJTT 221200Z 02007KT 9999 FEW008 BKN010 04/02 Q1021 TEMPO FEW005 BKN008 RMK 1ST008 7SC010 A3015
RJTT 221130Z 02008KT 9999 FEW008 BKN010 04/02 Q1020 NOSIG RMK 1ST008 7SC010 A3014
RJTT 221100Z 02007KT 9999 FEW008 BKN010 04/02 Q1021 NOSIG RMK 1ST008 7SC010 A3015
RJTT 221030Z 03009KT 9999 FEW008 BKN010 04/02 Q1021 NOSIG RMK 1ST008 7SC010 A3016
RJTT 221000Z 03009KT 9999 FEW007 BKN010 BKN020 03/02 Q1021 NOSIG RMK 1ST007 5SC010 6SC020 A3016
RJTT 220930Z 03009KT 9999 FEW007 BKN011 BKN020 03/02 Q1021 NOSIG RMK 1ST007 5SC011 6SC020 A3016
RJTT 220900Z 04011KT 9999 FEW007 BKN011 BKN020 04/02 Q1020 NOSIG RMK 1ST007 6SC011 7SC020 A3014
RJTT 220830Z 04011KT 9999 FEW008 BKN012 BKN020 03/02 Q1020 NOSIG RMK 1ST008 6CU012 7SC020 A3013
RJTT 220800Z 05012KT 9999 FEW008 BKN012 BKN020 03/02 Q1020 NOSIG RMK 1ST008 6CU012 7SC020 A3014
RJTT 220730Z 04011KT 9999 FEW007 BKN012 BKN030 03/02 Q1020 NOSIG RMK 1ST007 6CU012 7SC030 A3013
RJTT 220707Z 03012KT 9999 -SHRASN FEW007 BKN012 BKN015 03/02 Q1020 RMK 1ST007 5CU012 6CU015 A3013
RJTT 220700Z 04012KT 9999 -SHRASN FEW007 SCT012 BKN020 03/02 Q1020 NOSIG RMK 1ST007 4CU012 6CU020 A3013
RJTT 220630Z 04012KT 9999 -SHRASN FEW007 SCT012 BKN020 03/01 Q1020 NOSIG RMK 1ST007 4CU012 6CU020 A3012
RJTT 220600Z 04011KT 9999 -SHRASN FEW007 SCT012 BKN020 03/01 Q1020 NOSIG RMK 1ST007 4CU012 6CU020 A3013
RJTT 220530Z 03013KT 9999 -SHRASN FEW007 BKN012 BKN025 03/01 Q1020 BECMG FEW008 BKN020
RJTT 220034Z 02012KT 5000 -SHGSSNRA FEW005 BKN006 BKN008 02/02 Q1022 RMK 1ST005 6ST006 7ST008 A3018 SNOW PELLETS
RJTT 220030Z 03012KT 5000 -SHSNRA FEW005 BKN006 BKN008 02/01 Q1022 TEMPO 4000 -SHSN RMK 1ST005 6ST006 7ST008 A3018
RJTT 220016Z 03013KT 4500 -SHGSSNRA FEW005 BKN006 BKN008 02/01 Q1022 RMK 1ST005 6ST006 7ST008 A3018 SNOW PELLETS
RJTT 220000Z 02013KT 9999 -SNRA FEW005 BKN006 BKN008 02/02 Q1022 TEMPO 4000 -SN
RJTT 212345Z 02014KT 7000 -SN FEW005 BKN006 BKN008 02/02 Q1022 RMK 2ST005 6ST006 7ST008 A3018
RJTT 212330Z 02013KT 5000 -SN BR FEW005 BKN006 BKN030 02/02 Q1021 TEMPO 4000 -SN
RJTT 212316Z 02012KT 4500 -SN BR FEW005 BKN007 BKN025 02/02 Q1022 RMK 2ST005 6ST007 7SC025 A3018
RJTT 212300Z 02011KT 5000 -RASN BR FEW005 BKN007 BKN025 02/02 Q1022 TEMPO 4000 -SN RMK 2ST005 6ST007 7SC025 A3018
RJTT 212230Z 03013KT 3500 -SN BR FEW005 BKN007 BKN020 02/02 Q1021 NOSIG RMK 1ST005 5ST007 6SC020 A3017
RJTT 212200Z 02013KT 7000 -RA FEW005 BKN007 BKN020 02/02 Q1021 TEMPO 4000 -RASN BR RMK 1ST005 5ST007 6SC020 A3016
RJTT 212130Z 01013KT 7000 -RA FEW005 BKN007 BKN030 02/01 Q1020 TEMPO 4000 -RASN BR
RJTT 212100Z 02011KT 7000 -RA FEW006 SCT008 BKN040 02/01 Q1020 TEMPO 4000 -RASN BR FEW005 BKN008 RMK 1ST006 4ST008 7SC040 A3013
RJTT 212030Z 03008KT 7000 -RA FEW007 BKN010 BKN015 03/01 Q1020 TEMPO 4000 -RASN BR FEW005 BKN008
RJTT 212000Z 03010KT 8000 -RA FEW009 BKN010 BKN015 03/01 Q1019 NOSIG RMK 1ST009 6ST010 7SC015 A3012
RJTT 211930Z 03011KT 9999 -RASN FEW009 BKN010 BKN025 03/01 Q1019 NOSIG RMK 1ST009 5ST010 7SC025 A3010
RJTT 211900Z 05013KT 9999 -RA BKN010 BKN025 04/02 Q1018 NOSIG RMK 5CU010 7SC025 A3009
RJTT 211830Z 05012KT 9999 -RA SCT010 BKN025 04/02 Q1018 NOSIG RMK 3CU010 7SC025 A3008
RJTT 211800Z 04010KT 9999 -RA FEW012 BKN020 04/01 Q1018 NOSIG RMK 2CU012 7SC020 A3008
RJTT 211730Z 04011KT 9999 -RA FEW015 BKN020 04/01 Q1018 NOSIG RMK 2CU015 7SC020 A3008
RJTT 211700Z 04013KT 9999 -RA BKN020 05/01 Q1018 NOSIG RMK 7SC020 A3006
RJTT 211630Z 07014KT 9999 -RA BKN030 05/M00 Q1017 NOSIG RMK 7SC030 A3006
RJTT 211600Z 07016KT 9999 -RA BKN035 06/M01 Q1017 NOSIG RMK 7SC035 A3004
RJTT 211430Z 07014KT 9999 FEW030 BKN040 BKN070 06/M00 Q1016 BECMG 04014KT
RJTT 211330Z 07014KT 9999 FEW030 SCT080 06/00 Q1016 BECMG 04014KT
RJTT 211300Z 08014KT 9999 FEW030 BKN080 07/01 Q1016 NOSIG RMK 1CU030 6AC080 A3002